Time;durP1;ratioP1;P1;durP2;ratioP2;P2;SDS_P1;SDS_P2;PMS_P1;PMS_P2;Temp;Humidity;BMP_temperature;BMP_pressure;BME280_temperature;BME280_humidity;BME280_pressure;Samples;Min_cycle;Max_cycle;Signal;HPM_P1;HPM_P2
2023/05/19 00:00:39;;;;;;;4.70;1.98;;;;;;;;;;5045594;28;20577;-78
2023/05/19 00:03:05;;;;;;;4.20;2.08;;;;;;;;;;5041925;28;20103;-80
2023/05/19 00:05:30;;;;;;;2.45;1.85;;;;;;;;;;5037221;28;20049;-77
2023/05/19 00:08:00;;;;;;;5.38;2.17;;;;;;;;;;5049431;28;20287;-76
2023/05/19 00:10:30;;;;;;;5.13;1.80;;;;;;;;;;5037895;28;20119;-76
2023/05/19 00:12:56;;;;;;;3.25;1.95;;;;;;;;;;5036918;28;20073;-76
2023/05/19 00:15:22;;;;;;;3.85;2.15;;;;;;;;;;5033373;28;20057;-78
2023/05/19 00:17:47;;;;;;;4.18;1.85;;;;;;;;;;5028095;28;20052;-79
2023/05/19 00:20:13;;;;;;;2.88;1.90;;;;;;;;;;5033449;28;20375;-78
2023/05/19 00:22:39;;;;;;;5.40;1.92;;;;;;;;;;5034299;28;20025;-78
2023/05/19 00:25:05;;;;;;;7.70;2.78;;;;;;;;;;5039264;28;20021;-77
2023/05/19 00:27:30;;;;;;;7.18;2.53;;;;;;;;;;5026374;28;20025;-78
2023/05/19 00:29:55;;;;;;;4.75;2.47;;;;;;;;;;5045452;28;20211;-77
2023/05/19 00:32:21;;;;;;;5.32;2.55;;;;;;;;;;5033821;28;20120;-78
2023/05/19 00:34:47;;;;;;;4.93;2.08;;;;;;;;;;5034638;28;20021;-77
2023/05/19 00:37:13;;;;;;;6.93;2.28;;;;;;;;;;5038991;28;20096;-77
2023/05/19 00:39:38;;;;;;;4.82;2.08;;;;;;;;;;5029766;28;20582;-77
2023/05/19 00:42:04;;;;;;;5.47;2.33;;;;;;;;;;5034787;28;20955;-77
2023/05/19 00:44:30;;;;;;;2.97;1.98;;;;;;;;;;5034660;28;20103;-77
2023/05/19 00:46:56;;;;;;;3.50;1.77;;;;;;;;;;5034019;28;20121;-77
2023/05/19 00:49:22;;;;;;;2.05;1.50;;;;;;;;;;5030224;28;20855;-76
2023/05/19 00:51:48;;;;;;;3.35;2.00;;;;;;;;;;5013188;28;20037;-78
2023/05/19 00:54:13;;;;;;;5.07;1.50;;;;;;;;;;5035328;28;20075;-77
2023/05/19 00:56:39;;;;;;;3.53;1.67;;;;;;;;;;5032077;28;20505;-78
2023/05/19 00:59:05;;;;;;;5.47;2.42;;;;;;;;;;5028185;28;20021;-77
2023/05/19 01:01:31;;;;;;;2.53;1.25;;;;;;;;;;5033268;28;20029;-78
2023/05/19 01:03:57;;;;;;;1.52;1.42;;;;;;;;;;5034287;28;20578;-80
2023/05/19 01:06:24;;;;;;;3.42;1.92;;;;;;;;;;5037876;28;20024;-78
2023/05/19 01:08:50;;;;;;;2.50;1.77;;;;;;;;;;5032563;28;20505;-78
2023/05/19 01:11:16;;;;;;;2.05;1.35;;;;;;;;;;5034804;28;20052;-77
2023/05/19 01:13:42;;;;;;;4.18;1.65;;;;;;;;;;5037104;28;20025;-78
2023/05/19 01:16:16;;;;;;;2.90;1.17;;;;;;;;;;5031019;28;20063;-80
2023/05/19 01:19:11;;;;;;;2.65;1.80;;;;;;;;;;5031691;28;20030;-78
2023/05/19 01:22:01;;;;;;;2.03;1.40;;;;;;;;;;5033707;28;20055;-77
2023/05/19 01:25:00;;;;;;;4.07;1.88;;;;;;;;;;5029610;28;20131;-80
2023/05/19 01:27:35;;;;;;;2.35;1.10;;;;;;;;;;5032777;28;20074;-77
2023/05/19 01:30:29;;;;;;;3.08;1.70;;;;;;;;;;5034909;28;20052;-77
2023/05/19 01:33:01;;;;;;;1.95;1.17;;;;;;;;;;5033479;28;20773;-77
2023/05/19 01:35:28;;;;;;;1.60;1.13;;;;;;;;;;5036648;28;20378;-78
2023/05/19 01:37:56;;;;;;;5.68;1.90;;;;;;;;;;5032521;28;20065;-77
2023/05/19 01:40:23;;;;;;;4.00;1.77;;;;;;;;;;5032909;28;20997;-77
2023/05/19 01:42:52;;;;;;;4.05;1.77;;;;;;;;;;5029603;28;20092;-77
2023/05/19 01:45:18;;;;;;;2.05;1.35;;;;;;;;;;5028695;28;20037;-78
2023/05/19 01:47:46;;;;;;;3.58;1.80;;;;;;;;;;5029160;28;20112;-77
2023/05/19 01:50:11;;;;;;;4.68;1.95;;;;;;;;;;5031263;28;20040;-78
2023/05/19 01:52:37;;;;;;;1.52;1.30;;;;;;;;;;5037742;28;20021;-80
2023/05/19 01:55:03;;;;;;;3.15;1.60;;;;;;;;;;5028984;28;20021;-80
2023/05/19 01:57:42;;;;;;;4.35;1.45;;;;;;;;;;5029733;28;20029;-79
2023/05/19 02:00:22;;;;;;;2.65;1.42;;;;;;;;;;5032427;28;20032;-77
2023/05/19 02:02:56;;;;;;;4.28;1.70;;;;;;;;;;5034310;28;20041;-77
2023/05/19 02:05:49;;;;;;;4.57;1.63;;;;;;;;;;5033649;28;20029;-80
2023/05/19 02:08:41;;;;;;;4.78;1.80;;;;;;;;;;5026555;28;20049;-78
2023/05/19 02:11:32;;;;;;;3.90;1.60;;;;;;;;;;5029114;28;20031;-77
2023/05/19 02:14:01;;;;;;;5.18;1.75;;;;;;;;;;5049172;28;20082;-77
2023/05/19 02:16:27;;;;;;;3.70;1.90;;;;;;;;;;5033422;28;20033;-77
2023/05/19 02:18:54;;;;;;;3.72;1.67;;;;;;;;;;5038617;28;20037;-77
2023/05/19 02:21:19;;;;;;;6.55;2.10;;;;;;;;;;5037312;28;20078;-78
2023/05/19 02:23:46;;;;;;;1.65;1.40;;;;;;;;;;5037068;28;20108;-78
2023/05/19 02:26:12;;;;;;;1.92;1.40;;;;;;;;;;5033104;28;20022;-77
2023/05/19 02:28:37;;;;;;;4.07;1.63;;;;;;;;;;5036823;28;20029;-78
2023/05/19 02:31:04;;;;;;;1.90;1.20;;;;;;;;;;5028480;28;20108;-77
2023/05/19 02:33:30;;;;;;;3.30;1.58;;;;;;;;;;5030957;28;20025;-80
2023/05/19 02:35:56;;;;;;;2.38;1.30;;;;;;;;;;5037130;28;20041;-77
2023/05/19 02:38:21;;;;;;;4.45;1.65;;;;;;;;;;5033540;28;20021;-77
2023/05/19 02:40:47;;;;;;;2.55;1.42;;;;;;;;;;5029497;28;20049;-77
2023/05/19 02:43:12;;;;;;;2.80;1.92;;;;;;;;;;5029076;28;20531;-78
2023/05/19 02:45:37;;;;;;;2.65;1.70;;;;;;;;;;5033519;28;20032;-78
2023/05/19 02:48:03;;;;;;;2.33;1.58;;;;;;;;;;5031707;28;20531;-78
2023/05/19 02:50:28;;;;;;;2.22;1.90;;;;;;;;;;5040476;28;20024;-78
2023/05/19 02:52:54;;;;;;;2.40;1.85;;;;;;;;;;5029798;28;20048;-77
2023/05/19 02:55:19;;;;;;;5.50;1.52;;;;;;;;;;5029006;28;20652;-80
2023/05/19 02:57:45;;;;;;;2.25;2.00;;;;;;;;;;5036956;28;20029;-77
2023/05/19 03:00:11;;;;;;;4.22;1.80;;;;;;;;;;5035009;28;20017;-77
2023/05/19 03:02:36;;;;;;;2.90;1.70;;;;;;;;;;5030520;28;20478;-78
2023/05/19 03:05:03;;;;;;;3.75;2.15;;;;;;;;;;5032828;28;20071;-78
2023/05/19 03:07:28;;;;;;;6.22;1.70;;;;;;;;;;5032896;28;20029;-80
2023/05/19 03:09:54;;;;;;;3.90;1.25;;;;;;;;;;5034626;28;20021;-79
2023/05/19 03:12:19;;;;;;;4.60;2.00;;;;;;;;;;5035000;28;20036;-80
2023/05/19 03:14:45;;;;;;;2.33;1.42;;;;;;;;;;5030821;28;20482;-80
2023/05/19 03:17:11;;;;;;;3.42;1.70;;;;;;;;;;5031914;28;20025;-80
2023/05/19 03:19:36;;;;;;;0.95;0.90;;;;;;;;;;5028623;28;20044;-78
2023/05/19 03:22:02;;;;;;;3.83;1.50;;;;;;;;;;5030342;28;20033;-79
2023/05/19 03:24:27;;;;;;;2.10;1.20;;;;;;;;;;5032939;28;20068;-80
2023/05/19 03:26:53;;;;;;;4.25;1.75;;;;;;;;;;5033792;28;20080;-80
2023/05/19 03:29:18;;;;;;;7.60;3.15;;;;;;;;;;5041017;28;20029;-79
2023/05/19 03:31:43;;;;;;;6.65;2.35;;;;;;;;;;5040293;28;20025;-79
2023/05/19 03:34:09;;;;;;;4.90;2.15;;;;;;;;;;5033571;28;20018;-79
2023/05/19 03:36:38;;;;;;;4.32;2.00;;;;;;;;;;5037747;28;20543;-79
2023/05/19 03:39:04;;;;;;;6.20;1.67;;;;;;;;;;5034209;28;20094;-78
2023/05/19 03:41:30;;;;;;;3.65;1.73;;;;;;;;;;5040810;28;20103;-78
2023/05/19 03:43:55;;;;;;;6.03;2.33;;;;;;;;;;5033384;28;20060;-79
2023/05/19 03:46:20;;;;;;;1.98;1.60;;;;;;;;;;5037752;28;20116;-79
2023/05/19 03:48:46;;;;;;;3.67;1.60;;;;;;;;;;5035173;28;20025;-78
2023/05/19 03:51:12;;;;;;;3.72;1.52;;;;;;;;;;5042921;28;20104;-78
2023/05/19 03:53:37;;;;;;;3.75;1.88;;;;;;;;;;5036735;28;20192;-79
2023/05/19 03:56:04;;;;;;;4.38;1.83;;;;;;;;;;5048048;28;20494;-79
2023/05/19 03:58:30;;;;;;;3.97;2.10;;;;;;;;;;5044706;28;20265;-77
2023/05/19 04:00:55;;;;;;;4.45;1.92;;;;;;;;;;5059134;28;20489;-79
2023/05/19 04:03:21;;;;;;;1.60;1.30;;;;;;;;;;5047679;28;20035;-77
2023/05/19 04:05:46;;;;;;;2.13;1.40;;;;;;;;;;5060820;28;20075;-78
2023/05/19 04:08:11;;;;;;;4.82;1.80;;;;;;;;;;5061026;28;20096;-79
2023/05/19 04:10:37;;;;;;;3.15;1.45;;;;;;;;;;5041221;28;20469;-77
2023/05/19 04:13:02;;;;;;;4.80;1.80;;;;;;;;;;5047466;28;20060;-76
2023/05/19 04:15:28;;;;;;;1.92;1.40;;;;;;;;;;5043569;28;20029;-79
2023/05/19 04:17:53;;;;;;;4.53;1.77;;;;;;;;;;5039088;28;20021;-76
2023/05/19 04:20:18;;;;;;;1.80;1.27;;;;;;;;;;5044719;28;21022;-79
2023/05/19 04:22:44;;;;;;;1.35;1.25;;;;;;;;;;5039939;28;20057;-77
2023/05/19 04:25:09;;;;;;;2.40;1.63;;;;;;;;;;5045648;28;20025;-78
2023/05/19 04:27:38;;;;;;;2.95;2.00;;;;;;;;;;5041428;28;20279;-78
2023/05/19 04:30:04;;;;;;;1.38;1.08;;;;;;;;;;5055729;28;20080;-80
2023/05/19 04:32:30;;;;;;;1.52;1.00;;;;;;;;;;5040339;28;20105;-78
2023/05/19 04:34:57;;;;;;;3.47;1.70;;;;;;;;;;5055781;28;20048;-78
2023/05/19 04:37:24;;;;;;;1.58;1.40;;;;;;;;;;5043643;28;20029;-80
2023/05/19 04:39:51;;;;;;;1.63;1.27;;;;;;;;;;5040942;28;20060;-78
2023/05/19 04:42:18;;;;;;;5.80;1.90;;;;;;;;;;5041035;28;20025;-79
2023/05/19 04:44:44;;;;;;;5.38;1.58;;;;;;;;;;5041083;28;20037;-78
2023/05/19 04:47:09;;;;;;;4.97;2.25;;;;;;;;;;5046582;28;20581;-78
2023/05/19 04:49:38;;;;;;;3.50;1.90;;;;;;;;;;5041563;28;20056;-79
2023/05/19 04:52:09;;;;;;;2.15;1.38;;;;;;;;;;5045255;28;20516;-79
2023/05/19 04:54:35;;;;;;;3.00;1.67;;;;;;;;;;5042971;28;20032;-76
2023/05/19 04:57:02;;;;;;;2.10;1.77;;;;;;;;;;5045893;28;20099;-78
2023/05/19 04:59:28;;;;;;;3.90;1.85;;;;;;;;;;5058599;28;20025;-79
2023/05/19 05:01:55;;;;;;;3.97;2.15;;;;;;;;;;5039536;28;20030;-78
2023/05/19 05:04:21;;;;;;;4.20;1.90;;;;;;;;;;5040305;28;20236;-79
2023/05/19 05:06:47;;;;;;;4.13;1.63;;;;;;;;;;5040658;28;20029;-79
2023/05/19 05:09:14;;;;;;;2.20;1.42;;;;;;;;;;5063972;28;20017;-78
2023/05/19 05:11:40;;;;;;;4.13;2.10;;;;;;;;;;5063126;28;20032;-79
2023/05/19 05:14:05;;;;;;;4.97;2.08;;;;;;;;;;5059726;28;20104;-77
2023/05/19 05:16:32;;;;;;;2.50;1.85;;;;;;;;;;5040060;28;20029;-77
2023/05/19 05:18:58;;;;;;;5.82;1.85;;;;;;;;;;5041257;28;20164;-76
2023/05/19 05:21:25;;;;;;;4.95;2.10;;;;;;;;;;5047631;28;20184;-78
2023/05/19 05:23:51;;;;;;;4.15;2.33;;;;;;;;;;5034893;28;20025;-78
2023/05/19 05:26:23;;;;;;;4.80;2.10;;;;;;;;;;5032852;28;20025;-78
2023/05/19 05:28:49;;;;;;;7.03;2.05;;;;;;;;;;5033931;28;20043;-78
2023/05/19 05:31:15;;;;;;;5.97;1.85;;;;;;;;;;5032797;28;20454;-77
2023/05/19 05:33:41;;;;;;;3.17;1.75;;;;;;;;;;5028339;28;20060;-78
2023/05/19 05:36:07;;;;;;;3.35;1.75;;;;;;;;;;5028336;28;20171;-78
2023/05/19 05:38:33;;;;;;;1.90;1.52;;;;;;;;;;5028945;28;20029;-78
2023/05/19 05:41:00;;;;;;;1.55;1.20;;;;;;;;;;5035146;28;20029;-79
2023/05/19 05:43:26;;;;;;;5.22;2.00;;;;;;;;;;5037589;28;20171;-78
2023/05/19 05:45:51;;;;;;;4.35;1.88;;;;;;;;;;5032444;28;20637;-77
2023/05/19 05:48:17;;;;;;;2.75;2.10;;;;;;;;;;5029991;28;20554;-78
2023/05/19 05:50:43;;;;;;;4.28;2.20;;;;;;;;;;5031495;28;20028;-78
2023/05/19 05:53:16;;;;;;;2.83;1.42;;;;;;;;;;5037319;28;20055;-78
2023/05/19 05:55:42;;;;;;;3.10;2.00;;;;;;;;;;5028189;28;20107;-78
2023/05/19 05:58:09;;;;;;;4.00;1.83;;;;;;;;;;5033415;28;20425;-77
2023/05/19 06:00:35;;;;;;;3.65;1.95;;;;;;;;;;5031689;28;20025;-78
2023/05/19 06:03:02;;;;;;;6.20;2.33;;;;;;;;;;5039578;28;20016;-78
2023/05/19 06:05:28;;;;;;;3.35;1.40;;;;;;;;;;5028120;28;20018;-78
2023/05/19 06:07:53;;;;;;;7.72;2.58;;;;;;;;;;5027970;28;20036;-77
2023/05/19 06:10:19;;;;;;;7.07;2.30;;;;;;;;;;5032284;28;20389;-78
2023/05/19 06:12:44;;;;;;;5.07;2.47;;;;;;;;;;5027802;28;20625;-78
2023/05/19 06:15:10;;;;;;;6.07;2.17;;;;;;;;;;5027696;28;20047;-77
2023/05/19 06:17:35;;;;;;;5.93;2.17;;;;;;;;;;5036663;28;20040;-78
2023/05/19 06:20:05;;;;;;;3.83;2.30;;;;;;;;;;5035166;28;20025;-78
2023/05/19 06:22:30;;;;;;;4.28;2.67;;;;;;;;;;5028262;28;20028;-78
2023/05/19 06:24:56;;;;;;;2.88;2.20;;;;;;;;;;5033618;28;20116;-78
2023/05/19 06:27:21;;;;;;;2.53;1.67;;;;;;;;;;5030437;28;20401;-79
2023/05/19 06:29:46;;;;;;;5.70;2.28;;;;;;;;;;5035115;28;20470;-78
2023/05/19 06:32:12;;;;;;;8.07;2.60;;;;;;;;;;5032146;28;20029;-78
2023/05/19 06:34:39;;;;;;;7.75;2.35;;;;;;;;;;5028698;28;20344;-77
2023/05/19 06:37:04;;;;;;;4.75;3.00;;;;;;;;;;5037161;28;20047;-79
2023/05/19 06:39:30;;;;;;;5.90;2.45;;;;;;;;;;5031840;28;20371;-78
2023/05/19 06:41:55;;;;;;;5.90;3.13;;;;;;;;;;5032318;28;20048;-79
2023/05/19 06:44:21;;;;;;;5.25;2.20;;;;;;;;;;5024865;28;20021;-78
2023/05/19 06:46:46;;;;;;;4.95;2.72;;;;;;;;;;5037451;28;20669;-80
2023/05/19 06:49:12;;;;;;;3.65;2.08;;;;;;;;;;5039279;28;20036;-78
2023/05/19 06:51:37;;;;;;;6.00;2.70;;;;;;;;;;5038956;28;20032;-78
2023/05/19 06:54:03;;;;;;;4.20;2.40;;;;;;;;;;5036421;28;20036;-79
2023/05/19 06:56:28;;;;;;;2.35;1.70;;;;;;;;;;5035977;28;22337;-78
2023/05/19 06:58:54;;;;;;;3.33;2.22;;;;;;;;;;5061799;28;20029;-79
2023/05/19 07:01:20;;;;;;;6.28;2.42;;;;;;;;;;5039708;28;20052;-77
2023/05/19 07:03:45;;;;;;;3.67;2.25;;;;;;;;;;5039999;28;20036;-79
2023/05/19 07:06:11;;;;;;;5.70;2.92;;;;;;;;;;5038381;28;20047;-79
2023/05/19 07:08:36;;;;;;;3.58;2.03;;;;;;;;;;5054336;28;20083;-78
2023/05/19 07:11:02;;;;;;;3.80;2.53;;;;;;;;;;5044343;28;20020;-78
2023/05/19 07:13:27;;;;;;;3.28;2.40;;;;;;;;;;5044010;28;20016;-79
2023/05/19 07:15:54;;;;;;;4.07;2.50;;;;;;;;;;5038940;28;20048;-78
2023/05/19 07:18:20;;;;;;;5.13;2.50;;;;;;;;;;5040456;28;20033;-79
2023/05/19 07:20:46;;;;;;;7.13;2.80;;;;;;;;;;5051090;28;20047;-78
2023/05/19 07:23:11;;;;;;;5.35;2.75;;;;;;;;;;5040875;28;20104;-80
2023/05/19 07:25:37;;;;;;;4.18;2.60;;;;;;;;;;5041705;28;20059;-79
2023/05/19 07:28:02;;;;;;;2.63;1.83;;;;;;;;;;5041335;28;20077;-78
2023/05/19 07:30:28;;;;;;;2.60;2.10;;;;;;;;;;5044107;28;20022;-78
2023/05/19 07:32:53;;;;;;;3.85;2.35;;;;;;;;;;5047059;28;20997;-78
2023/05/19 07:35:21;;;;;;;4.55;2.38;;;;;;;;;;5040280;28;20025;-79
2023/05/19 07:37:47;;;;;;;7.25;2.92;;;;;;;;;;5039982;28;20024;-78
2023/05/19 07:40:12;;;;;;;3.13;2.05;;;;;;;;;;5041949;28;20045;-78
2023/05/19 07:42:37;;;;;;;5.45;2.58;;;;;;;;;;5057852;28;20019;-78
2023/05/19 07:45:03;;;;;;;3.05;2.30;;;;;;;;;;5041839;28;20085;-78
2023/05/19 07:47:29;;;;;;;5.13;2.58;;;;;;;;;;5040573;28;20025;-77
2023/05/19 07:49:55;;;;;;;4.15;2.55;;;;;;;;;;5040105;28;20044;-78
2023/05/19 07:52:20;;;;;;;2.92;2.10;;;;;;;;;;5040747;28;20409;-79
2023/05/19 07:54:45;;;;;;;2.90;2.33;;;;;;;;;;5061517;28;20037;-77
2023/05/19 07:57:11;;;;;;;3.20;2.10;;;;;;;;;;5042293;28;20029;-79
2023/05/19 07:59:36;;;;;;;3.58;2.45;;;;;;;;;;5040375;28;20049;-78
2023/05/19 08:02:02;;;;;;;3.50;2.25;;;;;;;;;;5043172;28;20025;-80
2023/05/19 08:04:27;;;;;;;4.25;2.40;;;;;;;;;;5043952;28;20227;-78
2023/05/19 08:06:53;;;;;;;4.22;2.60;;;;;;;;;;5042101;28;20124;-78
2023/05/19 08:09:19;;;;;;;3.83;2.30;;;;;;;;;;5039549;28;20017;-80
2023/05/19 08:11:45;;;;;;;2.65;2.40;;;;;;;;;;5058069;28;20031;-78
2023/05/19 08:14:11;;;;;;;4.80;2.30;;;;;;;;;;5042741;28;20017;-79
2023/05/19 08:16:36;;;;;;;3.40;2.20;;;;;;;;;;5045524;28;20120;-78
2023/05/19 08:19:04;;;;;;;4.40;2.60;;;;;;;;;;5055180;28;20029;-80
2023/05/19 08:21:33;;;;;;;4.05;2.25;;;;;;;;;;5040043;28;20387;-79
2023/05/19 08:24:01;;;;;;;6.28;2.85;;;;;;;;;;5044322;28;20025;-80
2023/05/19 08:26:27;;;;;;;3.67;2.38;;;;;;;;;;5039153;28;20083;-78
2023/05/19 08:28:53;;;;;;;3.95;2.00;;;;;;;;;;5057666;28;20026;-78
2023/05/19 08:31:18;;;;;;;3.00;1.83;;;;;;;;;;5055453;28;20119;-78
2023/05/19 08:33:44;;;;;;;4.28;1.73;;;;;;;;;;5041157;28;20030;-78
2023/05/19 08:36:10;;;;;;;2.05;1.90;;;;;;;;;;5042107;28;20017;-78
2023/05/19 08:38:35;;;;;;;3.00;1.80;;;;;;;;;;5045268;28;20037;-79
2023/05/19 08:41:01;;;;;;;19.67;3.45;;;;;;;;;;5038060;28;20025;-80
2023/05/19 08:43:26;;;;;;;3.50;2.00;;;;;;;;;;5039292;28;20025;-78
2023/05/19 08:45:52;;;;;;;3.65;1.98;;;;;;;;;;5038038;28;20037;-78
2023/05/19 08:48:18;;;;;;;2.05;1.77;;;;;;;;;;5046679;28;20017;-79
2023/05/19 08:51:01;;;;;;;2.53;2.10;;;;;;;;;;5040330;28;20108;-78
2023/05/19 08:53:35;;;;;;;2.78;1.85;;;;;;;;;;5045642;28;20031;-79
2023/05/19 08:56:09;;;;;;;4.75;2.15;;;;;;;;;;5038010;28;20029;-78
2023/05/19 08:58:40;;;;;;;3.85;1.67;;;;;;;;;;5045638;28;20025;-79
2023/05/19 09:01:06;;;;;;;2.75;2.15;;;;;;;;;;5034132;28;20025;-76
2023/05/19 09:03:36;;;;;;;3.20;2.15;;;;;;;;;;5041059;28;20052;-79
2023/05/19 09:06:11;;;;;;;2.58;1.95;;;;;;;;;;5041256;28;20109;-79
2023/05/19 09:08:37;;;;;;;2.92;1.83;;;;;;;;;;5032960;28;20056;-76
2023/05/19 09:11:02;;;;;;;2.25;1.98;;;;;;;;;;5044855;28;20583;-78
2023/05/19 09:13:27;;;;;;;5.68;2.50;;;;;;;;;;5036540;28;20108;-79
2023/05/19 09:15:55;;;;;;;5.43;2.13;;;;;;;;;;5049862;28;20564;-77
2023/05/19 09:18:20;;;;;;;2.45;1.42;;;;;;;;;;5037085;28;20056;-77
2023/05/19 09:20:46;;;;;;;2.97;1.50;;;;;;;;;;5044737;28;20484;-80
2023/05/19 09:23:16;;;;;;;1.95;1.70;;;;;;;;;;5040899;28;20036;-79
2023/05/19 09:25:52;;;;;;;9.97;2.03;;;;;;;;;;5035684;28;20085;-79
2023/05/19 09:28:29;;;;;;;3.22;2.00;;;;;;;;;;5058500;28;20111;-77
2023/05/19 09:31:02;;;;;;;2.95;1.83;;;;;;;;;;5037097;28;20026;-78
2023/05/19 09:33:29;;;;;;;4.03;1.67;;;;;;;;;;5048117;28;20036;-78
2023/05/19 09:35:57;;;;;;;3.10;2.08;;;;;;;;;;5060653;28;20033;-79
2023/05/19 09:38:24;;;;;;;2.70;1.48;;;;;;;;;;5045780;28;20044;-79
2023/05/19 09:40:51;;;;;;;3.10;1.70;;;;;;;;;;5035517;28;20117;-79
2023/05/19 09:43:16;;;;;;;2.70;1.35;;;;;;;;;;5039509;28;20033;-79
2023/05/19 09:45:42;;;;;;;2.08;1.40;;;;;;;;;;5039973;28;20056;-78
2023/05/19 09:48:07;;;;;;;2.45;1.77;;;;;;;;;;5039463;28;20390;-79
2023/05/19 09:50:34;;;;;;;2.92;1.48;;;;;;;;;;5040266;28;20026;-79
2023/05/19 09:53:00;;;;;;;1.95;1.63;;;;;;;;;;5038989;28;20163;-77
2023/05/19 09:55:27;;;;;;;3.50;1.80;;;;;;;;;;5042971;28;20026;-79
2023/05/19 09:57:56;;;;;;;2.90;1.65;;;;;;;;;;5040147;28;20524;-76
2023/05/19 10:00:22;;;;;;;4.93;1.52;;;;;;;;;;5039579;28;20029;-79
2023/05/19 10:02:49;;;;;;;2.05;1.50;;;;;;;;;;5035972;28;20039;-79
2023/05/19 10:05:19;;;;;;;1.95;1.65;;;;;;;;;;5039605;28;20687;-81
2023/05/19 10:07:51;;;;;;;2.67;1.73;;;;;;;;;;5038190;28;20033;-80
2023/05/19 10:10:19;;;;;;;3.50;1.80;;;;;;;;;;5048293;28;20017;-79
2023/05/19 10:12:45;;;;;;;2.53;1.70;;;;;;;;;;5038358;28;20025;-79
2023/05/19 10:15:15;;;;;;;2.65;1.67;;;;;;;;;;5033557;28;20385;-80
2023/05/19 10:17:41;;;;;;;3.63;1.80;;;;;;;;;;5036997;28;20102;-80
2023/05/19 10:20:14;;;;;;;2.83;1.70;;;;;;;;;;5038213;28;20036;-81
2023/05/19 10:22:41;;;;;;;4.03;1.77;;;;;;;;;;5045186;28;20028;-80
2023/05/19 10:25:08;;;;;;;3.83;1.80;;;;;;;;;;5034744;28;20025;-80
2023/05/19 10:27:37;;;;;;;4.20;1.70;;;;;;;;;;5033935;28;20042;-80
2023/05/19 10:30:19;;;;;;;2.95;1.45;;;;;;;;;;5033297;28;20024;-80
2023/05/19 10:32:47;;;;;;;2.22;1.50;;;;;;;;;;5029432;28;20029;-80
2023/05/19 10:35:32;;;;;;;3.28;1.60;;;;;;;;;;5030961;28;20013;-80
2023/05/19 10:38:41;;;;;;;2.60;1.50;;;;;;;;;;5037911;28;20107;-79
2023/05/19 10:41:32;;;;;;;2.55;1.60;;;;;;;;;;5034872;28;20622;-80
2023/05/19 10:44:15;;;;;;;2.95;1.85;;;;;;;;;;5036852;28;20135;-77
2023/05/19 10:46:41;;;;;;;4.45;1.90;;;;;;;;;;5033573;28;20064;-79
2023/05/19 10:49:07;;;;;;;2.47;1.67;;;;;;;;;;5041524;28;20051;-76
2023/05/19 10:51:33;;;;;;;2.08;1.55;;;;;;;;;;5046184;28;20665;-78
2023/05/19 10:54:02;;;;;;;2.20;1.48;;;;;;;;;;5036637;28;20029;-78
2023/05/19 10:56:31;;;;;;;3.00;1.70;;;;;;;;;;5035412;28;20021;-78
2023/05/19 10:58:57;;;;;;;2.45;1.63;;;;;;;;;;5036151;28;20079;-77
2023/05/19 11:01:30;;;;;;;3.08;1.70;;;;;;;;;;5046236;28;20021;-77
2023/05/19 11:03:58;;;;;;;3.42;1.70;;;;;;;;;;5032982;28;20037;-78
2023/05/19 11:06:27;;;;;;;2.28;1.50;;;;;;;;;;5035079;28;20026;-79
2023/05/19 11:09:10;;;;;;;3.47;1.73;;;;;;;;;;5034169;28;20036;-78
2023/05/19 11:11:51;;;;;;;3.15;1.70;;;;;;;;;;5023933;28;20096;-79
2023/05/19 11:14:22;;;;;;;2.15;1.58;;;;;;;;;;5031875;28;20018;-78
2023/05/19 11:16:52;;;;;;;4.18;1.50;;;;;;;;;;5027581;28;20029;-78
2023/05/19 11:19:24;;;;;;;3.58;1.77;;;;;;;;;;5036260;28;20647;-78
2023/05/19 11:21:56;;;;;;;2.40;1.35;;;;;;;;;;5027774;28;20041;-78
2023/05/19 11:24:49;;;;;;;2.13;1.38;;;;;;;;;;5035882;28;20481;-78
2023/05/19 11:27:23;;;;;;;4.63;1.50;;;;;;;;;;5039558;28;20045;-79
2023/05/19 11:29:49;;;;;;;1.75;1.50;;;;;;;;;;5027895;28;20025;-78
2023/05/19 11:32:15;;;;;;;3.00;1.50;;;;;;;;;;5032335;28;20040;-79
2023/05/19 11:34:40;;;;;;;2.35;1.70;;;;;;;;;;5041422;28;20026;-79
2023/05/19 11:37:07;;;;;;;2.60;1.35;;;;;;;;;;5036163;28;20025;-79
2023/05/19 11:39:33;;;;;;;2.13;1.40;;;;;;;;;;5038036;28;20216;-79
2023/05/19 11:41:58;;;;;;;2.00;1.50;;;;;;;;;;5037317;28;20032;-78
2023/05/19 11:44:24;;;;;;;2.05;1.40;;;;;;;;;;5059181;28;20033;-77
2023/05/19 11:46:49;;;;;;;3.45;1.75;;;;;;;;;;5042096;28;20040;-80
2023/05/19 11:49:15;;;;;;;26.67;2.50;;;;;;;;;;5044247;28;20017;-78
2023/05/19 11:51:44;;;;;;;4.35;1.40;;;;;;;;;;5051328;28;20590;-78
2023/05/19 11:54:10;;;;;;;2.08;1.35;;;;;;;;;;5044553;28;20044;-78
2023/05/19 11:56:40;;;;;;;2.72;1.20;;;;;;;;;;5043002;28;20033;-78
2023/05/19 11:59:07;;;;;;;3.70;1.30;;;;;;;;;;5042805;28;20052;-79
2023/05/19 12:01:33;;;;;;;2.67;1.60;;;;;;;;;;5040521;28;20274;-78
2023/05/19 12:03:59;;;;;;;4.40;1.80;;;;;;;;;;5037573;28;20017;-77
2023/05/19 12:06:25;;;;;;;1.50;1.30;;;;;;;;;;5047553;28;20024;-77
2023/05/19 12:08:53;;;;;;;3.58;1.73;;;;;;;;;;5048336;28;20569;-77
2023/05/19 12:11:18;;;;;;;1.83;1.10;;;;;;;;;;5042444;28;20049;-78
2023/05/19 12:13:44;;;;;;;2.67;1.63;;;;;;;;;;5080817;23;20061;-79
2023/05/19 12:16:10;;;;;;;3.00;1.80;;;;;;;;;;5026036;28;20041;-80
2023/05/19 12:18:37;;;;;;;3.85;1.75;;;;;;;;;;5021399;28;20022;-80
2023/05/19 12:21:03;;;;;;;5.03;1.58;;;;;;;;;;5035145;28;20079;-79
2023/05/19 12:23:29;;;;;;;2.40;1.38;;;;;;;;;;5019199;28;20109;-80
2023/05/19 12:25:57;;;;;;;2.13;1.38;;;;;;;;;;5002602;28;20061;-80
2023/05/19 12:28:22;;;;;;;2.47;1.40;;;;;;;;;;5019105;28;20029;-80
2023/05/19 12:30:50;;;;;;;2.35;1.30;;;;;;;;;;5010195;28;20030;-80
2023/05/19 12:33:19;;;;;;;3.22;1.63;;;;;;;;;;5010947;28;20029;-80
2023/05/19 12:35:46;;;;;;;2.05;1.30;;;;;;;;;;5014800;28;20509;-80
2023/05/19 12:38:13;;;;;;;3.20;1.40;;;;;;;;;;5013877;28;20037;-80
2023/05/19 12:40:38;;;;;;;2.38;1.25;;;;;;;;;;5009706;28;20018;-80
2023/05/19 12:43:05;;;;;;;2.15;1.30;;;;;;;;;;5002531;28;20709;-80
2023/05/19 12:45:34;;;;;;;2.20;1.30;;;;;;;;;;5001482;28;20059;-80
2023/05/19 12:48:03;;;;;;;6.28;1.50;;;;;;;;;;5001183;28;20109;-80
2023/05/19 12:50:30;;;;;;;3.22;1.30;;;;;;;;;;5030853;28;20056;-80
2023/05/19 12:52:56;;;;;;;2.13;1.35;;;;;;;;;;5009790;28;20030;-79
2023/05/19 12:55:22;;;;;;;2.65;1.55;;;;;;;;;;5004228;28;20524;-81
2023/05/19 12:57:53;;;;;;;3.00;1.45;;;;;;;;;;5015862;28;20030;-79
2023/05/19 13:00:21;;;;;;;2.63;1.42;;;;;;;;;;5015889;28;20021;-79
2023/05/19 13:03:03;;;;;;;2.20;1.30;;;;;;;;;;5017884;28;20443;-79
2023/05/19 13:05:32;;;;;;;2.15;1.58;;;;;;;;;;5002050;28;20053;-79
2023/05/19 13:08:01;;;;;;;2.78;1.40;;;;;;;;;;5001606;28;20031;-80
2023/05/19 13:10:27;;;;;;;2.17;1.30;;;;;;;;;;5010793;28;20037;-79
2023/05/19 13:12:58;;;;;;;46.10;3.55;;;;;;;;;;5018012;28;20561;-79
2023/05/19 13:15:26;;;;;;;3.65;1.30;;;;;;;;;;5001650;28;20083;-80
2023/05/19 13:17:53;;;;;;;2.15;1.10;;;;;;;;;;5001946;28;20471;-78
2023/05/19 13:20:19;;;;;;;2.38;1.27;;;;;;;;;;5002321;28;20618;-80
2023/05/19 13:22:46;;;;;;;3.58;1.40;;;;;;;;;;5014979;28;20363;-80
2023/05/19 13:25:11;;;;;;;2.80;1.52;;;;;;;;;;5016116;28;20462;-79
2023/05/19 13:27:37;;;;;;;2.08;1.23;;;;;;;;;;5003728;28;20023;-80
2023/05/19 13:30:03;;;;;;;2.85;1.27;;;;;;;;;;5001083;28;20026;-80
2023/05/19 13:32:29;;;;;;;2.30;1.38;;;;;;;;;;5006203;28;20038;-80
2023/05/19 13:34:54;;;;;;;1.50;1.40;;;;;;;;;;5017045;28;20022;-79
2023/05/19 13:37:20;;;;;;;1.50;1.33;;;;;;;;;;5009700;28;20028;-80
2023/05/19 13:39:45;;;;;;;1.52;1.13;;;;;;;;;;5005154;28;20274;-79
2023/05/19 13:42:11;;;;;;;1.10;1.08;;;;;;;;;;5007150;28;20446;-80
2023/05/19 13:44:36;;;;;;;1.70;1.48;;;;;;;;;;5008203;28;20022;-79
2023/05/19 13:47:02;;;;;;;1.10;0.98;;;;;;;;;;5012928;28;20052;-79
2023/05/19 13:49:27;;;;;;;1.73;1.30;;;;;;;;;;5000120;28;20022;-79
2023/05/19 13:51:55;;;;;;;2.40;1.23;;;;;;;;;;4999392;28;20026;-79
2023/05/19 13:54:21;;;;;;;3.13;1.17;;;;;;;;;;5008250;28;20493;-80
2023/05/19 13:56:47;;;;;;;2.00;1.20;;;;;;;;;;5020669;28;20490;-80
2023/05/19 13:59:13;;;;;;;1.75;1.30;;;;;;;;;;5012421;28;20125;-80
2023/05/19 14:01:38;;;;;;;2.28;1.35;;;;;;;;;;4997607;28;20065;-80
2023/05/19 14:04:04;;;;;;;1.52;1.17;;;;;;;;;;4997175;28;20022;-79
2023/05/19 14:06:29;;;;;;;1.30;1.20;;;;;;;;;;5014032;28;20040;-79
2023/05/19 14:08:55;;;;;;;1.33;1.20;;;;;;;;;;5015664;28;20044;-79
2023/05/19 14:11:21;;;;;;;1.60;1.10;;;;;;;;;;5017342;28;20033;-79
2023/05/19 14:13:49;;;;;;;2.38;1.30;;;;;;;;;;5000248;28;20066;-79
2023/05/19 14:16:16;;;;;;;1.60;1.15;;;;;;;;;;5001261;28;20025;-79
2023/05/19 14:18:41;;;;;;;1.05;0.95;;;;;;;;;;5019384;28;20029;-80
2023/05/19 14:21:07;;;;;;;2.25;1.30;;;;;;;;;;5008139;28;20022;-79
2023/05/19 14:23:32;;;;;;;2.22;1.30;;;;;;;;;;5005212;28;20018;-80
2023/05/19 14:25:58;;;;;;;3.90;1.10;;;;;;;;;;5000392;28;20394;-79
2023/05/19 14:28:23;;;;;;;1.80;1.40;;;;;;;;;;4996487;28;20030;-80
2023/05/19 14:30:48;;;;;;;1.88;1.30;;;;;;;;;;5010068;28;20029;-79
2023/05/19 14:33:14;;;;;;;6.57;1.60;;;;;;;;;;5011464;28;20079;-79
2023/05/19 14:35:39;;;;;;;4.10;1.38;;;;;;;;;;5016791;28;20944;-79
2023/05/19 14:38:05;;;;;;;1.25;1.15;;;;;;;;;;5015110;28;20112;-79
2023/05/19 14:40:30;;;;;;;3.90;1.40;;;;;;;;;;5015896;28;20499;-79
2023/05/19 14:42:56;;;;;;;1.50;1.40;;;;;;;;;;5017943;28;20033;-81
2023/05/19 14:45:21;;;;;;;1.40;1.05;;;;;;;;;;4998243;28;20023;-81